sensor_id;sensor_type;location;lat;lon;timestamp;pressure;altitude;pressure_sealevel;temperature
34807;BMP180;18310;55.586;12.286;2023-03-01T00:01:26;103017.00;;;9.90
34807;BMP180;18310;55.586;12.286;2023-03-01T00:04:30;103019.00;;;9.90
34807;BMP180;18310;55.586;12.286;2023-03-01T00:07:34;103017.00;;;9.90
34807;BMP180;18310;55.586;12.286;2023-03-01T00:10:38;103013.00;;;9.80
34807;BMP180;18310;55.586;12.286;2023-03-01T00:13:45;103008.00;;;9.80
34807;BMP180;18310;55.586;12.286;2023-03-01T00:16:51;103006.00;;;9.80
34807;BMP180;18310;55.586;12.286;2023-03-01T00:19:56;102999.00;;;9.70
34807;BMP180;18310;55.586;12.286;2023-03-01T00:23:00;103007.00;;;9.70
34807;BMP180;18310;55.586;12.286;2023-03-01T00:26:09;103010.00;;;9.70
34807;BMP180;18310;55.586;12.286;2023-03-01T00:29:12;103015.00;;;9.70
34807;BMP180;18310;55.586;12.286;2023-03-01T00:32:18;103014.00;;;9.80
34807;BMP180;18310;55.586;12.286;2023-03-01T00:35:21;103008.00;;;9.80
34807;BMP180;18310;55.586;12.286;2023-03-01T00:38:26;103011.00;;;9.70
34807;BMP180;18310;55.586;12.286;2023-03-01T00:41:30;103018.00;;;9.70
34807;BMP180;18310;55.586;12.286;2023-03-01T00:44:36;103011.00;;;9.60
34807;BMP180;18310;55.586;12.286;2023-03-01T00:47:41;103015.00;;;9.60
34807;BMP180;18310;55.586;12.286;2023-03-01T00:50:45;103008.00;;;9.60
34807;BMP180;18310;55.586;12.286;2023-03-01T00:53:50;103006.00;;;9.60
34807;BMP180;18310;55.586;12.286;2023-03-01T00:56:54;102990.00;;;9.50
34807;BMP180;18310;55.586;12.286;2023-03-01T00:59:58;102998.00;;;9.50
34807;BMP180;18310;55.586;12.286;2023-03-01T01:03:03;102992.00;;;9.50
34807;BMP180;18310;55.586;12.286;2023-03-01T01:06:18;102988.00;;;9.50
34807;BMP180;18310;55.586;12.286;2023-03-01T01:09:24;102986.00;;;9.50
34807;BMP180;18310;55.586;12.286;2023-03-01T01:12:28;102993.00;;;9.60
34807;BMP180;18310;55.586;12.286;2023-03-01T01:15:34;102984.00;;;9.50
34807;BMP180;18310;55.586;12.286;2023-03-01T01:18:39;102982.00;;;9.50
34807;BMP180;18310;55.586;12.286;2023-03-01T01:21:44;102979.00;;;9.50
34807;BMP180;18310;55.586;12.286;2023-03-01T01:24:48;102976.00;;;9.50
34807;BMP180;18310;55.586;12.286;2023-03-01T01:27:52;102969.00;;;9.50
34807;BMP180;18310;55.586;12.286;2023-03-01T01:30:56;102969.00;;;9.50
34807;BMP180;18310;55.586;12.286;2023-03-01T01:34:06;102960.00;;;9.50
34807;BMP180;18310;55.586;12.286;2023-03-01T01:37:13;102962.00;;;9.40
34807;BMP180;18310;55.586;12.286;2023-03-01T01:40:21;102959.00;;;9.40
34807;BMP180;18310;55.586;12.286;2023-03-01T01:43:27;102954.00;;;9.40
34807;BMP180;18310;55.586;12.286;2023-03-01T01:46:33;102954.00;;;9.30
34807;BMP180;18310;55.586;12.286;2023-03-01T01:49:45;102947.00;;;9.30
34807;BMP180;18310;55.586;12.286;2023-03-01T01:52:52;102940.00;;;9.20
34807;BMP180;18310;55.586;12.286;2023-03-01T01:56:00;102926.00;;;9.20
34807;BMP180;18310;55.586;12.286;2023-03-01T01:59:05;102931.00;;;9.20
34807;BMP180;18310;55.586;12.286;2023-03-01T02:02:12;102924.00;;;9.20
34807;BMP180;18310;55.586;12.286;2023-03-01T02:05:35;102923.00;;;9.20
34807;BMP180;18310;55.586;12.286;2023-03-01T02:08:43;102917.00;;;9.10
34807;BMP180;18310;55.586;12.286;2023-03-01T02:11:50;102909.00;;;9.10
34807;BMP180;18310;55.586;12.286;2023-03-01T02:14:55;102919.00;;;9.10
34807;BMP180;18310;55.586;12.286;2023-03-01T02:18:00;102920.00;;;9.10
34807;BMP180;18310;55.586;12.286;2023-03-01T02:21:38;102905.00;;;9.20
34807;BMP180;18310;55.586;12.286;2023-03-01T02:25:23;102908.00;;;9.20
34807;BMP180;18310;55.586;12.286;2023-03-01T02:28:32;102900.00;;;9.30
34807;BMP180;18310;55.586;12.286;2023-03-01T02:31:37;102901.00;;;9.30
34807;BMP180;18310;55.586;12.286;2023-03-01T02:34:48;102888.00;;;9.40
34807;BMP180;18310;55.586;12.286;2023-03-01T02:37:52;102880.00;;;9.40
34807;BMP180;18310;55.586;12.286;2023-03-01T02:41:06;102886.00;;;9.50
34807;BMP180;18310;55.586;12.286;2023-03-01T02:44:14;102899.00;;;9.50
34807;BMP180;18310;55.586;12.286;2023-03-01T02:47:20;102887.00;;;9.50
34807;BMP180;18310;55.586;12.286;2023-03-01T02:50:50;102895.00;;;9.60
34807;BMP180;18310;55.586;12.286;2023-03-01T02:54:16;102906.00;;;9.70
34807;BMP180;18310;55.586;12.286;2023-03-01T02:57:23;102909.00;;;9.70
34807;BMP180;18310;55.586;12.286;2023-03-01T03:00:36;102906.00;;;9.70
34807;BMP180;18310;55.586;12.286;2023-03-01T03:03:42;102906.00;;;9.70
34807;BMP180;18310;55.586;12.286;2023-03-01T03:06:51;102916.00;;;9.80
34807;BMP180;18310;55.586;12.286;2023-03-01T03:09:58;102915.00;;;9.80
34807;BMP180;18310;55.586;12.286;2023-03-01T03:13:03;102923.00;;;9.80
34807;BMP180;18310;55.586;12.286;2023-03-01T03:16:09;102926.00;;;9.80
34807;BMP180;18310;55.586;12.286;2023-03-01T03:19:19;102926.00;;;9.70
34807;BMP180;18310;55.586;12.286;2023-03-01T03:22:22;102911.00;;;9.80
34807;BMP180;18310;55.586;12.286;2023-03-01T03:25:28;102905.00;;;9.80
34807;BMP180;18310;55.586;12.286;2023-03-01T03:28:33;102910.00;;;9.80
34807;BMP180;18310;55.586;12.286;2023-03-01T03:31:45;102908.00;;;9.80
34807;BMP180;18310;55.586;12.286;2023-03-01T03:35:00;102903.00;;;9.90
34807;BMP180;18310;55.586;12.286;2023-03-01T03:38:11;102906.00;;;9.90
34807;BMP180;18310;55.586;12.286;2023-03-01T03:41:19;102904.00;;;9.90
34807;BMP180;18310;55.586;12.286;2023-03-01T03:44:29;102891.00;;;10.00
34807;BMP180;18310;55.586;12.286;2023-03-01T03:47:45;102900.00;;;10.00
34807;BMP180;18310;55.586;12.286;2023-03-01T03:51:03;102899.00;;;10.00
34807;BMP180;18310;55.586;12.286;2023-03-01T03:54:13;102898.00;;;10.00
34807;BMP180;18310;55.586;12.286;2023-03-01T03:57:49;102910.00;;;10.00
34807;BMP180;18310;55.586;12.286;2023-03-01T04:01:00;102905.00;;;10.00
34807;BMP180;18310;55.586;12.286;2023-03-01T04:04:06;102903.00;;;10.00
34807;BMP180;18310;55.586;12.286;2023-03-01T04:07:10;102899.00;;;10.00
34807;BMP180;18310;55.586;12.286;2023-03-01T04:10:17;102895.00;;;10.00
34807;BMP180;18310;55.586;12.286;2023-03-01T04:13:24;102882.00;;;9.90
34807;BMP180;18310;55.586;12.286;2023-03-01T04:16:27;102884.00;;;9.90
34807;BMP180;18310;55.586;12.286;2023-03-01T04:19:35;102885.00;;;9.90
34807;BMP180;18310;55.586;12.286;2023-03-01T04:22:40;102883.00;;;9.90
34807;BMP180;18310;55.586;12.286;2023-03-01T04:25:47;102883.00;;;9.80
34807;BMP180;18310;55.586;12.286;2023-03-01T04:28:57;102885.00;;;9.80
34807;BMP180;18310;55.586;12.286;2023-03-01T04:32:01;102882.00;;;9.70
34807;BMP180;18310;55.586;12.286;2023-03-01T04:35:08;102888.00;;;9.70
34807;BMP180;18310;55.586;12.286;2023-03-01T04:38:18;102869.00;;;9.70
34807;BMP180;18310;55.586;12.286;2023-03-01T04:41:26;102874.00;;;9.70
34807;BMP180;18310;55.586;12.286;2023-03-01T04:44:32;102859.00;;;9.70
34807;BMP180;18310;55.586;12.286;2023-03-01T04:47:35;102858.00;;;9.70
34807;BMP180;18310;55.586;12.286;2023-03-01T04:50:41;102859.00;;;9.70
34807;BMP180;18310;55.586;12.286;2023-03-01T04:53:45;102861.00;;;9.70
34807;BMP180;18310;55.586;12.286;2023-03-01T04:56:49;102851.00;;;9.70
34807;BMP180;18310;55.586;12.286;2023-03-01T04:59:53;102858.00;;;9.60
34807;BMP180;18310;55.586;12.286;2023-03-01T05:03:01;102849.00;;;9.70
34807;BMP180;18310;55.586;12.286;2023-03-01T05:06:08;102853.00;;;9.60
34807;BMP180;18310;55.586;12.286;2023-03-01T05:09:14;102852.00;;;9.60
34807;BMP180;18310;55.586;12.286;2023-03-01T05:12:21;102842.00;;;9.50
34807;BMP180;18310;55.586;12.286;2023-03-01T05:15:25;102841.00;;;9.50
34807;BMP180;18310;55.586;12.286;2023-03-01T05:18:34;102853.00;;;9.50
34807;BMP180;18310;55.586;12.286;2023-03-01T05:21:39;102856.00;;;9.50
34807;BMP180;18310;55.586;12.286;2023-03-01T05:25:06;102853.00;;;9.50
34807;BMP180;18310;55.586;12.286;2023-03-01T05:28:11;102860.00;;;9.50
34807;BMP180;18310;55.586;12.286;2023-03-01T05:31:15;102857.00;;;9.50
34807;BMP180;18310;55.586;12.286;2023-03-01T05:34:19;102858.00;;;9.60
34807;BMP180;18310;55.586;12.286;2023-03-01T05:37:26;102855.00;;;9.60
34807;BMP180;18310;55.586;12.286;2023-03-01T05:40:33;102858.00;;;9.50
34807;BMP180;18310;55.586;12.286;2023-03-01T05:43:37;102860.00;;;9.50
34807;BMP180;18310;55.586;12.286;2023-03-01T05:46:44;102863.00;;;9.50
34807;BMP180;18310;55.586;12.286;2023-03-01T05:49:47;102860.00;;;9.40
34807;BMP180;18310;55.586;12.286;2023-03-01T05:52:59;102861.00;;;9.40
34807;BMP180;18310;55.586;12.286;2023-03-01T05:56:03;102862.00;;;9.40
34807;BMP180;18310;55.586;12.286;2023-03-01T05:59:16;102854.00;;;9.30
34807;BMP180;18310;55.586;12.286;2023-03-01T06:02:20;102862.00;;;9.30
34807;BMP180;18310;55.586;12.286;2023-03-01T06:05:25;102866.00;;;9.30
34807;BMP180;18310;55.586;12.286;2023-03-01T06:08:31;102865.00;;;9.30
34807;BMP180;18310;55.586;12.286;2023-03-01T06:11:37;102859.00;;;9.20
34807;BMP180;18310;55.586;12.286;2023-03-01T06:14:41;102863.00;;;9.20
34807;BMP180;18310;55.586;12.286;2023-03-01T06:17:53;102859.00;;;9.20
34807;BMP180;18310;55.586;12.286;2023-03-01T06:21:07;102851.00;;;9.20
34807;BMP180;18310;55.586;12.286;2023-03-01T06:24:13;102844.00;;;9.20
34807;BMP180;18310;55.586;12.286;2023-03-01T06:27:18;102843.00;;;9.20
34807;BMP180;18310;55.586;12.286;2023-03-01T06:30:29;102847.00;;;9.20
34807;BMP180;18310;55.586;12.286;2023-03-01T06:33:39;102857.00;;;9.20
34807;BMP180;18310;55.586;12.286;2023-03-01T06:37:01;102856.00;;;9.30
34807;BMP180;18310;55.586;12.286;2023-03-01T06:40:14;102852.00;;;9.30
34807;BMP180;18310;55.586;12.286;2023-03-01T06:43:19;102857.00;;;9.30
34807;BMP180;18310;55.586;12.286;2023-03-01T06:46:31;102858.00;;;9.30
34807;BMP180;18310;55.586;12.286;2023-03-01T06:49:42;102861.00;;;9.40
34807;BMP180;18310;55.586;12.286;2023-03-01T06:52:46;102863.00;;;9.40
34807;BMP180;18310;55.586;12.286;2023-03-01T06:55:59;102852.00;;;9.50
34807;BMP180;18310;55.586;12.286;2023-03-01T06:59:09;102855.00;;;9.50
34807;BMP180;18310;55.586;12.286;2023-03-01T07:02:20;102858.00;;;9.50
34807;BMP180;18310;55.586;12.286;2023-03-01T07:05:25;102864.00;;;9.50
34807;BMP180;18310;55.586;12.286;2023-03-01T07:08:33;102871.00;;;9.60
34807;BMP180;18310;55.586;12.286;2023-03-01T07:11:38;102869.00;;;9.70
34807;BMP180;18310;55.586;12.286;2023-03-01T07:14:44;102870.00;;;9.70
34807;BMP180;18310;55.586;12.286;2023-03-01T07:17:48;102873.00;;;9.80
34807;BMP180;18310;55.586;12.286;2023-03-01T07:20:53;102874.00;;;9.90
34807;BMP180;18310;55.586;12.286;2023-03-01T07:23:59;102862.00;;;9.90
34807;BMP180;18310;55.586;12.286;2023-03-01T07:27:19;102873.00;;;10.00
34807;BMP180;18310;55.586;12.286;2023-03-01T07:30:26;102876.00;;;10.10
34807;BMP180;18310;55.586;12.286;2023-03-01T07:33:30;102876.00;;;10.20
34807;BMP180;18310;55.586;12.286;2023-03-01T07:36:41;102865.00;;;10.40
34807;BMP180;18310;55.586;12.286;2023-03-01T07:40:07;102877.00;;;10.40
34807;BMP180;18310;55.586;12.286;2023-03-01T07:43:13;102876.00;;;10.50
34807;BMP180;18310;55.586;12.286;2023-03-01T07:46:17;102875.00;;;10.50
34807;BMP180;18310;55.586;12.286;2023-03-01T07:49:22;102876.00;;;10.60
34807;BMP180;18310;55.586;12.286;2023-03-01T07:52:28;102875.00;;;10.70
34807;BMP180;18310;55.586;12.286;2023-03-01T07:55:32;102876.00;;;10.70
34807;BMP180;18310;55.586;12.286;2023-03-01T07:58:41;102884.00;;;10.80
34807;BMP180;18310;55.586;12.286;2023-03-01T08:01:45;102891.00;;;10.90
34807;BMP180;18310;55.586;12.286;2023-03-01T08:04:54;102876.00;;;11.00
34807;BMP180;18310;55.586;12.286;2023-03-01T08:07:58;102889.00;;;11.10
34807;BMP180;18310;55.586;12.286;2023-03-01T08:11:04;102888.00;;;11.20
34807;BMP180;18310;55.586;12.286;2023-03-01T08:14:09;102879.00;;;11.20
34807;BMP180;18310;55.586;12.286;2023-03-01T08:17:16;102897.00;;;11.30
34807;BMP180;18310;55.586;12.286;2023-03-01T08:20:23;102884.00;;;11.40
34807;BMP180;18310;55.586;12.286;2023-03-01T08:23:27;102891.00;;;11.40
34807;BMP180;18310;55.586;12.286;2023-03-01T08:26:33;102887.00;;;11.60
34807;BMP180;18310;55.586;12.286;2023-03-01T08:29:39;102879.00;;;11.60
34807;BMP180;18310;55.586;12.286;2023-03-01T08:32:45;102880.00;;;11.70
34807;BMP180;18310;55.586;12.286;2023-03-01T08:35:49;102875.00;;;11.70
34807;BMP180;18310;55.586;12.286;2023-03-01T08:38:52;102878.00;;;11.80
34807;BMP180;18310;55.586;12.286;2023-03-01T08:41:57;102887.00;;;11.90
34807;BMP180;18310;55.586;12.286;2023-03-01T08:45:02;102881.00;;;11.90
34807;BMP180;18310;55.586;12.286;2023-03-01T08:48:11;102884.00;;;12.00
34807;BMP180;18310;55.586;12.286;2023-03-01T08:51:19;102885.00;;;12.10
34807;BMP180;18310;55.586;12.286;2023-03-01T08:54:28;102888.00;;;12.20
34807;BMP180;18310;55.586;12.286;2023-03-01T08:57:42;102882.00;;;12.30
34807;BMP180;18310;55.586;12.286;2023-03-01T09:00:46;102889.00;;;12.40
34807;BMP180;18310;55.586;12.286;2023-03-01T09:03:50;102903.00;;;12.50
34807;BMP180;18310;55.586;12.286;2023-03-01T09:06:56;102900.00;;;12.70
34807;BMP180;18310;55.586;12.286;2023-03-01T09:09:59;102899.00;;;12.80
34807;BMP180;18310;55.586;12.286;2023-03-01T09:13:09;102900.00;;;12.90
34807;BMP180;18310;55.586;12.286;2023-03-01T09:16:19;102904.00;;;13.00
34807;BMP180;18310;55.586;12.286;2023-03-01T09:19:23;102898.00;;;13.10
34807;BMP180;18310;55.586;12.286;2023-03-01T09:22:30;102915.00;;;13.10
34807;BMP180;18310;55.586;12.286;2023-03-01T09:25:36;102917.00;;;13.20
34807;BMP180;18310;55.586;12.286;2023-03-01T09:28:40;102914.00;;;13.20
34807;BMP180;18310;55.586;12.286;2023-03-01T09:31:53;102922.00;;;13.20
34807;BMP180;18310;55.586;12.286;2023-03-01T09:35:18;102924.00;;;13.20
34807;BMP180;18310;55.586;12.286;2023-03-01T09:38:56;102921.00;;;13.20
34807;BMP180;18310;55.586;12.286;2023-03-01T09:42:51;102924.00;;;13.30
34807;BMP180;18310;55.586;12.286;2023-03-01T09:46:22;102930.00;;;13.30
34807;BMP180;18310;55.586;12.286;2023-03-01T09:49:36;102934.00;;;13.40
34807;BMP180;18310;55.586;12.286;2023-03-01T09:53:00;102944.00;;;13.40
34807;BMP180;18310;55.586;12.286;2023-03-01T09:56:56;102934.00;;;13.50
34807;BMP180;18310;55.586;12.286;2023-03-01T10:00:41;102943.00;;;13.50
34807;BMP180;18310;55.586;12.286;2023-03-01T10:07:46;102939.00;;;13.60
34807;BMP180;18310;55.586;12.286;2023-03-01T10:10:54;102947.00;;;13.60
34807;BMP180;18310;55.586;12.286;2023-03-01T10:14:07;102950.00;;;13.70
34807;BMP180;18310;55.586;12.286;2023-03-01T10:17:28;102947.00;;;13.80
34807;BMP180;18310;55.586;12.286;2023-03-01T10:20:46;102944.00;;;13.90
34807;BMP180;18310;55.586;12.286;2023-03-01T10:24:07;102945.00;;;13.90
34807;BMP180;18310;55.586;12.286;2023-03-01T10:27:19;102937.00;;;14.00
34807;BMP180;18310;55.586;12.286;2023-03-01T10:30:34;102935.00;;;14.10
34807;BMP180;18310;55.586;12.286;2023-03-01T10:33:41;102933.00;;;14.20
34807;BMP180;18310;55.586;12.286;2023-03-01T10:36:50;102935.00;;;14.20
34807;BMP180;18310;55.586;12.286;2023-03-01T10:40:02;102935.00;;;14.20
34807;BMP180;18310;55.586;12.286;2023-03-01T10:43:12;102937.00;;;14.30
34807;BMP180;18310;55.586;12.286;2023-03-01T10:46:27;102934.00;;;14.30
34807;BMP180;18310;55.586;12.286;2023-03-01T10:49:32;102928.00;;;14.30
34807;BMP180;18310;55.586;12.286;2023-03-01T10:52:42;102925.00;;;14.40
34807;BMP180;18310;55.586;12.286;2023-03-01T10:56:09;102912.00;;;14.50
34807;BMP180;18310;55.586;12.286;2023-03-01T10:59:27;102904.00;;;14.60
34807;BMP180;18310;55.586;12.286;2023-03-01T11:02:31;102903.00;;;14.70
34807;BMP180;18310;55.586;12.286;2023-03-01T11:06:04;102905.00;;;14.80
34807;BMP180;18310;55.586;12.286;2023-03-01T11:09:20;102906.00;;;14.90
34807;BMP180;18310;55.586;12.286;2023-03-01T11:12:27;102905.00;;;15.00
34807;BMP180;18310;55.586;12.286;2023-03-01T11:15:58;102910.00;;;15.10
34807;BMP180;18310;55.586;12.286;2023-03-01T11:19:21;102909.00;;;15.20
34807;BMP180;18310;55.586;12.286;2023-03-01T11:22:25;102906.00;;;15.20
34807;BMP180;18310;55.586;12.286;2023-03-01T11:25:33;102898.00;;;15.40
34807;BMP180;18310;55.586;12.286;2023-03-01T11:28:42;102899.00;;;15.50
34807;BMP180;18310;55.586;12.286;2023-03-01T11:31:52;102891.00;;;15.50
34807;BMP180;18310;55.586;12.286;2023-03-01T11:35:09;102886.00;;;15.60
34807;BMP180;18310;55.586;12.286;2023-03-01T11:38:22;102889.00;;;15.70
34807;BMP180;18310;55.586;12.286;2023-03-01T11:41:32;102902.00;;;15.80
34807;BMP180;18310;55.586;12.286;2023-03-01T11:44:50;102902.00;;;15.80
34807;BMP180;18310;55.586;12.286;2023-03-01T11:48:14;102889.00;;;15.90
34807;BMP180;18310;55.586;12.286;2023-03-01T11:51:32;102898.00;;;15.90
34807;BMP180;18310;55.586;12.286;2023-03-01T11:55:04;102888.00;;;16.00
34807;BMP180;18310;55.586;12.286;2023-03-01T11:58:45;102873.00;;;16.10
34807;BMP180;18310;55.586;12.286;2023-03-01T12:02:26;102868.00;;;16.20
34807;BMP180;18310;55.586;12.286;2023-03-01T12:06:32;102875.00;;;16.30
34807;BMP180;18310;55.586;12.286;2023-03-01T12:09:52;102863.00;;;16.30
34807;BMP180;18310;55.586;12.286;2023-03-01T12:13:27;102861.00;;;16.30
34807;BMP180;18310;55.586;12.286;2023-03-01T12:20:40;102854.00;;;16.40
34807;BMP180;18310;55.586;12.286;2023-03-01T12:24:28;102849.00;;;16.50
34807;BMP180;18310;55.586;12.286;2023-03-01T12:28:24;102850.00;;;16.50
34807;BMP180;18310;55.586;12.286;2023-03-01T12:32:20;102849.00;;;16.60
34807;BMP180;18310;55.586;12.286;2023-03-01T12:35:53;102848.00;;;16.60
34807;BMP180;18310;55.586;12.286;2023-03-01T12:39:13;102852.00;;;16.60
34807;BMP180;18310;55.586;12.286;2023-03-01T12:42:32;102845.00;;;16.70
34807;BMP180;18310;55.586;12.286;2023-03-01T12:46:10;102844.00;;;16.80
34807;BMP180;18310;55.586;12.286;2023-03-01T12:49:26;102847.00;;;16.80
34807;BMP180;18310;55.586;12.286;2023-03-01T12:52:40;102848.00;;;16.90
34807;BMP180;18310;55.586;12.286;2023-03-01T12:55:44;102837.00;;;16.80
34807;BMP180;18310;55.586;12.286;2023-03-01T12:59:02;102843.00;;;16.90
34807;BMP180;18310;55.586;12.286;2023-03-01T13:02:17;102841.00;;;16.90
34807;BMP180;18310;55.586;12.286;2023-03-01T13:05:36;102839.00;;;17.00
34807;BMP180;18310;55.586;12.286;2023-03-01T13:08:49;102846.00;;;17.00
34807;BMP180;18310;55.586;12.286;2023-03-01T13:11:57;102841.00;;;17.00
34807;BMP180;18310;55.586;12.286;2023-03-01T13:15:24;102847.00;;;17.00
34807;BMP180;18310;55.586;12.286;2023-03-01T13:18:32;102836.00;;;17.00
34807;BMP180;18310;55.586;12.286;2023-03-01T13:21:37;102844.00;;;17.00
34807;BMP180;18310;55.586;12.286;2023-03-01T13:24:42;102837.00;;;17.00
34807;BMP180;18310;55.586;12.286;2023-03-01T13:27:47;102839.00;;;17.00
34807;BMP180;18310;55.586;12.286;2023-03-01T13:30:51;102835.00;;;17.10
34807;BMP180;18310;55.586;12.286;2023-03-01T13:33:55;102824.00;;;17.20
34807;BMP180;18310;55.586;12.286;2023-03-01T13:37:16;102827.00;;;17.30
34807;BMP180;18310;55.586;12.286;2023-03-01T13:40:59;102826.00;;;17.30
34807;BMP180;18310;55.586;12.286;2023-03-01T13:44:13;102816.00;;;17.20
34807;BMP180;18310;55.586;12.286;2023-03-01T13:47:22;102819.00;;;17.20
34807;BMP180;18310;55.586;12.286;2023-03-01T13:50:29;102817.00;;;17.20
34807;BMP180;18310;55.586;12.286;2023-03-01T13:53:43;102817.00;;;17.20
34807;BMP180;18310;55.586;12.286;2023-03-01T13:56:50;102806.00;;;17.20
34807;BMP180;18310;55.586;12.286;2023-03-01T13:59:54;102815.00;;;17.30
34807;BMP180;18310;55.586;12.286;2023-03-01T14:03:05;102803.00;;;17.30
34807;BMP180;18310;55.586;12.286;2023-03-01T14:06:14;102797.00;;;17.30
34807;BMP180;18310;55.586;12.286;2023-03-01T14:09:26;102797.00;;;17.30
34807;BMP180;18310;55.586;12.286;2023-03-01T14:12:44;102790.00;;;17.30
34807;BMP180;18310;55.586;12.286;2023-03-01T14:16:12;102780.00;;;17.30
34807;BMP180;18310;55.586;12.286;2023-03-01T14:19:25;102781.00;;;17.30
34807;BMP180;18310;55.586;12.286;2023-03-01T14:22:36;102774.00;;;17.30
34807;BMP180;18310;55.586;12.286;2023-03-01T14:25:50;102767.00;;;17.30
34807;BMP180;18310;55.586;12.286;2023-03-01T14:28:55;102754.00;;;17.30
34807;BMP180;18310;55.586;12.286;2023-03-01T14:32:11;102754.00;;;17.30
34807;BMP180;18310;55.586;12.286;2023-03-01T14:35:22;102754.00;;;17.30
34807;BMP180;18310;55.586;12.286;2023-03-01T14:38:33;102753.00;;;17.30
34807;BMP180;18310;55.586;12.286;2023-03-01T14:41:40;102754.00;;;17.20
34807;BMP180;18310;55.586;12.286;2023-03-01T14:44:48;102758.00;;;17.20
34807;BMP180;18310;55.586;12.286;2023-03-01T14:48:02;102749.00;;;17.20
34807;BMP180;18310;55.586;12.286;2023-03-01T14:51:12;102754.00;;;17.10
34807;BMP180;18310;55.586;12.286;2023-03-01T14:54:27;102759.00;;;17.10
34807;BMP180;18310;55.586;12.286;2023-03-01T14:57:34;102755.00;;;17.10
34807;BMP180;18310;55.586;12.286;2023-03-01T15:00:59;102764.00;;;17.00
34807;BMP180;18310;55.586;12.286;2023-03-01T15:04:10;102761.00;;;17.00
34807;BMP180;18310;55.586;12.286;2023-03-01T15:07:18;102762.00;;;16.90
34807;BMP180;18310;55.586;12.286;2023-03-01T15:10:27;102768.00;;;16.90
34807;BMP180;18310;55.586;12.286;2023-03-01T15:13:34;102758.00;;;16.80
34807;BMP180;18310;55.586;12.286;2023-03-01T15:16:40;102765.00;;;16.80
34807;BMP180;18310;55.586;12.286;2023-03-01T15:19:50;102763.00;;;16.70
34807;BMP180;18310;55.586;12.286;2023-03-01T15:22:57;102757.00;;;16.70
34807;BMP180;18310;55.586;12.286;2023-03-01T15:26:01;102757.00;;;16.60
34807;BMP180;18310;55.586;12.286;2023-03-01T15:29:25;102764.00;;;16.60
34807;BMP180;18310;55.586;12.286;2023-03-01T15:32:38;102751.00;;;16.50
34807;BMP180;18310;55.586;12.286;2023-03-01T15:35:54;102746.00;;;16.40
34807;BMP180;18310;55.586;12.286;2023-03-01T15:42:44;102750.00;;;16.30
34807;BMP180;18310;55.586;12.286;2023-03-01T15:45:57;102759.00;;;16.20
34807;BMP180;18310;55.586;12.286;2023-03-01T15:49:29;102754.00;;;16.20
34807;BMP180;18310;55.586;12.286;2023-03-01T15:52:58;102764.00;;;16.10
34807;BMP180;18310;55.586;12.286;2023-03-01T15:56:13;102759.00;;;16.10
34807;BMP180;18310;55.586;12.286;2023-03-01T15:59:43;102765.00;;;16.00
34807;BMP180;18310;55.586;12.286;2023-03-01T16:02:51;102775.00;;;15.90
34807;BMP180;18310;55.586;12.286;2023-03-01T16:05:59;102772.00;;;15.90
34807;BMP180;18310;55.586;12.286;2023-03-01T16:09:14;102768.00;;;15.80
34807;BMP180;18310;55.586;12.286;2023-03-01T16:12:27;102763.00;;;15.70
34807;BMP180;18310;55.586;12.286;2023-03-01T16:15:42;102778.00;;;15.60
34807;BMP180;18310;55.586;12.286;2023-03-01T16:18:51;102771.00;;;15.50
34807;BMP180;18310;55.586;12.286;2023-03-01T16:21:56;102766.00;;;15.40
34807;BMP180;18310;55.586;12.286;2023-03-01T16:25:08;102778.00;;;15.30
34807;BMP180;18310;55.586;12.286;2023-03-01T16:28:12;102771.00;;;15.20
34807;BMP180;18310;55.586;12.286;2023-03-01T16:31:19;102759.00;;;15.10
34807;BMP180;18310;55.586;12.286;2023-03-01T16:34:25;102763.00;;;15.00
34807;BMP180;18310;55.586;12.286;2023-03-01T16:37:35;102755.00;;;15.00
34807;BMP180;18310;55.586;12.286;2023-03-01T16:40:39;102757.00;;;14.90
34807;BMP180;18310;55.586;12.286;2023-03-01T16:43:43;102752.00;;;14.80
34807;BMP180;18310;55.586;12.286;2023-03-01T16:46:50;102740.00;;;14.70
34807;BMP180;18310;55.586;12.286;2023-03-01T16:50:05;102745.00;;;14.60
34807;BMP180;18310;55.586;12.286;2023-03-01T16:53:19;102745.00;;;14.50
34807;BMP180;18310;55.586;12.286;2023-03-01T16:56:25;102750.00;;;14.40
34807;BMP180;18310;55.586;12.286;2023-03-01T16:59:29;102758.00;;;14.40
34807;BMP180;18310;55.586;12.286;2023-03-01T17:02:53;102760.00;;;14.20
34807;BMP180;18310;55.586;12.286;2023-03-01T17:06:20;102757.00;;;14.10
34807;BMP180;18310;55.586;12.286;2023-03-01T17:09:42;102763.00;;;14.00
34807;BMP180;18310;55.586;12.286;2023-03-01T17:12:54;102767.00;;;13.80
34807;BMP180;18310;55.586;12.286;2023-03-01T17:15:58;102772.00;;;13.70
34807;BMP180;18310;55.586;12.286;2023-03-01T17:19:01;102776.00;;;13.50
34807;BMP180;18310;55.586;12.286;2023-03-01T17:22:07;102776.00;;;13.40
34807;BMP180;18310;55.586;12.286;2023-03-01T17:25:11;102765.00;;;13.30
34807;BMP180;18310;55.586;12.286;2023-03-01T17:28:15;102774.00;;;13.30
34807;BMP180;18310;55.586;12.286;2023-03-01T17:31:20;102777.00;;;13.20
34807;BMP180;18310;55.586;12.286;2023-03-01T17:34:24;102784.00;;;13.10
34807;BMP180;18310;55.586;12.286;2023-03-01T17:37:31;102787.00;;;13.00
34807;BMP180;18310;55.586;12.286;2023-03-01T17:40:46;102789.00;;;13.00
34807;BMP180;18310;55.586;12.286;2023-03-01T17:43:58;102789.00;;;12.90
34807;BMP180;18310;55.586;12.286;2023-03-01T17:47:04;102793.00;;;12.80
34807;BMP180;18310;55.586;12.286;2023-03-01T17:50:11;102803.00;;;12.70
34807;BMP180;18310;55.586;12.286;2023-03-01T17:53:17;102803.00;;;12.60
34807;BMP180;18310;55.586;12.286;2023-03-01T17:56:24;102804.00;;;12.50
34807;BMP180;18310;55.586;12.286;2023-03-01T17:59:28;102804.00;;;12.40
34807;BMP180;18310;55.586;12.286;2023-03-01T18:02:36;102809.00;;;12.40
34807;BMP180;18310;55.586;12.286;2023-03-01T18:05:41;102809.00;;;12.30
34807;BMP180;18310;55.586;12.286;2023-03-01T18:08:48;102803.00;;;12.30